sensor_id;sensor_type;location;lat;lon;timestamp;temperature;humidity
56308;DHT22;42217;50.422;7.210;2024-03-17T00:00:04;3.60;99.90
56308;DHT22;42217;50.422;7.210;2024-03-17T00:02:30;3.60;99.90
56308;DHT22;42217;50.422;7.210;2024-03-17T00:04:56;3.40;99.90
56308;DHT22;42217;50.422;7.210;2024-03-17T00:07:22;3.20;99.90
56308;DHT22;42217;50.422;7.210;2024-03-17T00:09:48;2.90;99.90
56308;DHT22;42217;50.422;7.210;2024-03-17T00:12:13;2.90;99.90
56308;DHT22;42217;50.422;7.210;2024-03-17T00:14:39;3.00;99.90
56308;DHT22;42217;50.422;7.210;2024-03-17T00:17:05;3.10;99.90
56308;DHT22;42217;50.422;7.210;2024-03-17T00:19:31;3.20;99.90
56308;DHT22;42217;50.422;7.210;2024-03-17T00:21:56;3.40;99.90
56308;DHT22;42217;50.422;7.210;2024-03-17T00:24:22;3.50;99.90
56308;DHT22;42217;50.422;7.210;2024-03-17T00:26:48;3.50;99.90
56308;DHT22;42217;50.422;7.210;2024-03-17T00:29:14;3.40;99.90
56308;DHT22;42217;50.422;7.210;2024-03-17T00:31:43;3.30;99.90
56308;DHT22;42217;50.422;7.210;2024-03-17T00:34:09;3.20;99.90
56308;DHT22;42217;50.422;7.210;2024-03-17T00:36:35;3.30;99.90
56308;DHT22;42217;50.422;7.210;2024-03-17T00:39:02;3.30;99.90
56308;DHT22;42217;50.422;7.210;2024-03-17T00:41:27;3.30;99.90
56308;DHT22;42217;50.422;7.210;2024-03-17T00:43:53;3.10;99.90
56308;DHT22;42217;50.422;7.210;2024-03-17T00:46:21;2.90;99.90
56308;DHT22;42217;50.422;7.210;2024-03-17T00:48:48;2.70;99.90
56308;DHT22;42217;50.422;7.210;2024-03-17T00:51:14;2.80;99.90
56308;DHT22;42217;50.422;7.210;2024-03-17T00:53:40;3.00;99.90
56308;DHT22;42217;50.422;7.210;2024-03-17T00:56:06;3.30;99.90
56308;DHT22;42217;50.422;7.210;2024-03-17T00:58:32;3.50;99.90
56308;DHT22;42217;50.422;7.210;2024-03-17T01:00:57;3.60;99.90
56308;DHT22;42217;50.422;7.210;2024-03-17T01:03:23;3.60;99.90
56308;DHT22;42217;50.422;7.210;2024-03-17T01:05:49;3.60;99.90
56308;DHT22;42217;50.422;7.210;2024-03-17T01:08:18;3.70;99.90
56308;DHT22;42217;50.422;7.210;2024-03-17T01:10:45;3.70;99.90
56308;DHT22;42217;50.422;7.210;2024-03-17T01:13:11;3.70;99.90
56308;DHT22;42217;50.422;7.210;2024-03-17T01:15:38;3.60;99.90
56308;DHT22;42217;50.422;7.210;2024-03-17T01:18:04;3.40;99.90
56308;DHT22;42217;50.422;7.210;2024-03-17T01:20:39;3.10;99.90
56308;DHT22;42217;50.422;7.210;2024-03-17T01:23:05;3.00;99.90
56308;DHT22;42217;50.422;7.210;2024-03-17T01:25:33;3.20;99.90
56308;DHT22;42217;50.422;7.210;2024-03-17T01:28:05;3.50;99.90
56308;DHT22;42217;50.422;7.210;2024-03-17T01:30:34;3.50;99.90
56308;DHT22;42217;50.422;7.210;2024-03-17T01:33:01;3.60;99.90
56308;DHT22;42217;50.422;7.210;2024-03-17T01:35:27;3.50;99.90
56308;DHT22;42217;50.422;7.210;2024-03-17T01:37:52;3.50;99.90
56308;DHT22;42217;50.422;7.210;2024-03-17T01:40:18;3.50;99.90
56308;DHT22;42217;50.422;7.210;2024-03-17T01:42:44;3.50;99.90
56308;DHT22;42217;50.422;7.210;2024-03-17T01:45:30;3.40;99.90
56308;DHT22;42217;50.422;7.210;2024-03-17T01:47:59;3.20;99.90
56308;DHT22;42217;50.422;7.210;2024-03-17T01:50:26;3.20;99.90
56308;DHT22;42217;50.422;7.210;2024-03-17T01:52:57;3.20;99.90
56308;DHT22;42217;50.422;7.210;2024-03-17T01:55:26;3.10;99.90
56308;DHT22;42217;50.422;7.210;2024-03-17T01:57:53;3.00;99.90
56308;DHT22;42217;50.422;7.210;2024-03-17T02:00:18;3.00;99.90
56308;DHT22;42217;50.422;7.210;2024-03-17T02:02:44;2.70;99.90
56308;DHT22;42217;50.422;7.210;2024-03-17T02:05:10;2.30;99.90
56308;DHT22;42217;50.422;7.210;2024-03-17T02:07:36;2.00;99.90
56308;DHT22;42217;50.422;7.210;2024-03-17T02:10:02;1.80;99.90
56308;DHT22;42217;50.422;7.210;2024-03-17T02:12:31;1.80;99.90
56308;DHT22;42217;50.422;7.210;2024-03-17T02:14:58;2.10;99.90
56308;DHT22;42217;50.422;7.210;2024-03-17T02:17:24;2.10;99.90
56308;DHT22;42217;50.422;7.210;2024-03-17T02:19:51;2.10;99.90
56308;DHT22;42217;50.422;7.210;2024-03-17T02:22:17;2.10;99.90
56308;DHT22;42217;50.422;7.210;2024-03-17T02:24:43;2.00;99.90
56308;DHT22;42217;50.422;7.210;2024-03-17T02:27:09;1.90;99.90
56308;DHT22;42217;50.422;7.210;2024-03-17T02:29:35;1.90;99.90
56308;DHT22;42217;50.422;7.210;2024-03-17T02:32:03;2.00;99.90
56308;DHT22;42217;50.422;7.210;2024-03-17T02:34:33;2.10;99.90
56308;DHT22;42217;50.422;7.210;2024-03-17T02:36:59;1.90;99.90
56308;DHT22;42217;50.422;7.210;2024-03-17T02:39:25;1.60;99.90
56308;DHT22;42217;50.422;7.210;2024-03-17T02:42:03;1.30;99.90
56308;DHT22;42217;50.422;7.210;2024-03-17T02:44:30;1.10;99.90
56308;DHT22;42217;50.422;7.210;2024-03-17T02:46:57;1.00;99.90
56308;DHT22;42217;50.422;7.210;2024-03-17T02:49:24;0.90;99.90
56308;DHT22;42217;50.422;7.210;2024-03-17T02:51:50;0.80;99.90
56308;DHT22;42217;50.422;7.210;2024-03-17T02:54:15;0.80;99.90
56308;DHT22;42217;50.422;7.210;2024-03-17T02:56:42;0.90;99.90
56308;DHT22;42217;50.422;7.210;2024-03-17T02:59:07;0.90;99.90
56308;DHT22;42217;50.422;7.210;2024-03-17T03:01:33;1.00;99.90
56308;DHT22;42217;50.422;7.210;2024-03-17T03:04:00;1.00;99.90
56308;DHT22;42217;50.422;7.210;2024-03-17T03:06:25;1.00;99.90
56308;DHT22;42217;50.422;7.210;2024-03-17T03:08:51;1.00;99.90
56308;DHT22;42217;50.422;7.210;2024-03-17T03:11:17;0.90;99.90
56308;DHT22;42217;50.422;7.210;2024-03-17T03:13:44;0.90;99.90
56308;DHT22;42217;50.422;7.210;2024-03-17T03:16:11;1.00;99.90
56308;DHT22;42217;50.422;7.210;2024-03-17T03:18:38;1.10;99.90
56308;DHT22;42217;50.422;7.210;2024-03-17T03:21:07;1.20;99.90
56308;DHT22;42217;50.422;7.210;2024-03-17T03:23:33;1.20;99.90
56308;DHT22;42217;50.422;7.210;2024-03-17T03:26:00;1.20;99.90
56308;DHT22;42217;50.422;7.210;2024-03-17T03:28:30;1.10;99.90
56308;DHT22;42217;50.422;7.210;2024-03-17T03:30:56;1.10;99.90
56308;DHT22;42217;50.422;7.210;2024-03-17T03:33:23;1.40;99.90
56308;DHT22;42217;50.422;7.210;2024-03-17T03:35:49;1.70;99.90
56308;DHT22;42217;50.422;7.210;2024-03-17T03:38:17;2.20;99.90
56308;DHT22;42217;50.422;7.210;2024-03-17T03:40:43;2.60;99.90
56308;DHT22;42217;50.422;7.210;2024-03-17T03:43:09;2.80;99.90
56308;DHT22;42217;50.422;7.210;2024-03-17T03:45:36;3.00;99.90
56308;DHT22;42217;50.422;7.210;2024-03-17T03:48:02;3.10;99.90
56308;DHT22;42217;50.422;7.210;2024-03-17T03:50:29;3.10;99.90
56308;DHT22;42217;50.422;7.210;2024-03-17T03:52:55;3.10;99.90
56308;DHT22;42217;50.422;7.210;2024-03-17T03:55:21;3.20;99.90
56308;DHT22;42217;50.422;7.210;2024-03-17T03:57:47;3.30;99.90
56308;DHT22;42217;50.422;7.210;2024-03-17T04:00:20;3.30;99.90
56308;DHT22;42217;50.422;7.210;2024-03-17T04:02:52;3.30;99.90
56308;DHT22;42217;50.422;7.210;2024-03-17T04:05:19;3.30;99.90
56308;DHT22;42217;50.422;7.210;2024-03-17T04:07:45;3.30;99.90
56308;DHT22;42217;50.422;7.210;2024-03-17T04:10:12;3.00;99.90
56308;DHT22;42217;50.422;7.210;2024-03-17T04:12:38;3.00;99.90
56308;DHT22;42217;50.422;7.210;2024-03-17T04:15:05;2.90;99.90
56308;DHT22;42217;50.422;7.210;2024-03-17T04:17:32;3.00;99.90
56308;DHT22;42217;50.422;7.210;2024-03-17T04:19:58;2.90;99.90
56308;DHT22;42217;50.422;7.210;2024-03-17T04:22:24;2.80;99.90
56308;DHT22;42217;50.422;7.210;2024-03-17T04:24:51;2.80;99.90
56308;DHT22;42217;50.422;7.210;2024-03-17T04:27:23;2.90;99.90
56308;DHT22;42217;50.422;7.210;2024-03-17T04:29:59;2.80;99.90
56308;DHT22;42217;50.422;7.210;2024-03-17T04:32:25;2.70;99.90
56308;DHT22;42217;50.422;7.210;2024-03-17T04:34:54;2.60;99.90
56308;DHT22;42217;50.422;7.210;2024-03-17T04:37:20;2.60;99.90
56308;DHT22;42217;50.422;7.210;2024-03-17T04:39:46;2.70;99.90
56308;DHT22;42217;50.422;7.210;2024-03-17T04:42:13;2.70;99.90
56308;DHT22;42217;50.422;7.210;2024-03-17T04:44:40;2.70;99.90
56308;DHT22;42217;50.422;7.210;2024-03-17T04:47:06;2.70;99.90
56308;DHT22;42217;50.422;7.210;2024-03-17T04:49:35;2.70;99.90
56308;DHT22;42217;50.422;7.210;2024-03-17T04:52:00;2.90;99.90
56308;DHT22;42217;50.422;7.210;2024-03-17T04:54:26;3.00;99.90
56308;DHT22;42217;50.422;7.210;2024-03-17T04:56:51;3.00;99.90
56308;DHT22;42217;50.422;7.210;2024-03-17T04:59:17;3.00;99.90
56308;DHT22;42217;50.422;7.210;2024-03-17T05:01:43;3.00;99.90
56308;DHT22;42217;50.422;7.210;2024-03-17T05:04:08;2.90;99.90
56308;DHT22;42217;50.422;7.210;2024-03-17T05:06:34;2.90;99.90
56308;DHT22;42217;50.422;7.210;2024-03-17T05:09:00;2.90;99.90
56308;DHT22;42217;50.422;7.210;2024-03-17T05:11:25;2.80;99.90
56308;DHT22;42217;50.422;7.210;2024-03-17T05:13:52;2.80;99.90
56308;DHT22;42217;50.422;7.210;2024-03-17T05:16:17;2.80;99.90
56308;DHT22;42217;50.422;7.210;2024-03-17T05:18:43;2.80;99.90
56308;DHT22;42217;50.422;7.210;2024-03-17T05:21:09;2.80;99.90
56308;DHT22;42217;50.422;7.210;2024-03-17T05:23:36;2.90;99.90
56308;DHT22;42217;50.422;7.210;2024-03-17T05:26:03;2.90;99.90
56308;DHT22;42217;50.422;7.210;2024-03-17T05:28:32;3.00;99.90
56308;DHT22;42217;50.422;7.210;2024-03-17T05:31:00;3.00;99.90
56308;DHT22;42217;50.422;7.210;2024-03-17T05:33:26;3.00;99.90
56308;DHT22;42217;50.422;7.210;2024-03-17T05:35:56;2.90;99.90
56308;DHT22;42217;50.422;7.210;2024-03-17T05:38:29;2.80;99.90
56308;DHT22;42217;50.422;7.210;2024-03-17T05:41:00;2.60;99.90
56308;DHT22;42217;50.422;7.210;2024-03-17T05:43:27;2.60;99.90
56308;DHT22;42217;50.422;7.210;2024-03-17T05:45:54;2.80;99.90
56308;DHT22;42217;50.422;7.210;2024-03-17T05:48:20;3.00;99.90
56308;DHT22;42217;50.422;7.210;2024-03-17T05:50:46;3.10;99.90
56308;DHT22;42217;50.422;7.210;2024-03-17T05:53:12;3.30;99.90
56308;DHT22;42217;50.422;7.210;2024-03-17T05:55:38;3.40;99.90
56308;DHT22;42217;50.422;7.210;2024-03-17T05:58:06;3.40;99.90
56308;DHT22;42217;50.422;7.210;2024-03-17T06:00:38;3.50;99.90
56308;DHT22;42217;50.422;7.210;2024-03-17T06:03:04;3.60;99.90
56308;DHT22;42217;50.422;7.210;2024-03-17T06:05:38;3.60;99.90
56308;DHT22;42217;50.422;7.210;2024-03-17T06:08:06;3.60;99.90
56308;DHT22;42217;50.422;7.210;2024-03-17T06:10:35;3.60;99.90
56308;DHT22;42217;50.422;7.210;2024-03-17T06:13:01;3.80;99.90
56308;DHT22;42217;50.422;7.210;2024-03-17T06:15:27;4.10;99.90
56308;DHT22;42217;50.422;7.210;2024-03-17T06:17:53;4.20;99.90
56308;DHT22;42217;50.422;7.210;2024-03-17T06:20:20;4.40;99.90
56308;DHT22;42217;50.422;7.210;2024-03-17T06:22:46;4.50;99.90
56308;DHT22;42217;50.422;7.210;2024-03-17T06:25:13;4.50;99.90
56308;DHT22;42217;50.422;7.210;2024-03-17T06:27:38;4.50;99.90
56308;DHT22;42217;50.422;7.210;2024-03-17T06:30:04;4.50;99.90
56308;DHT22;42217;50.422;7.210;2024-03-17T06:32:34;4.50;99.90
56308;DHT22;42217;50.422;7.210;2024-03-17T06:35:04;4.60;99.90
56308;DHT22;42217;50.422;7.210;2024-03-17T06:37:30;4.70;99.90
56308;DHT22;42217;50.422;7.210;2024-03-17T06:39:55;5.10;99.90
56308;DHT22;42217;50.422;7.210;2024-03-17T06:42:22;5.20;99.90
56308;DHT22;42217;50.422;7.210;2024-03-17T06:44:48;5.40;99.90
56308;DHT22;42217;50.422;7.210;2024-03-17T06:47:14;5.50;99.90
56308;DHT22;42217;50.422;7.210;2024-03-17T06:49:39;5.40;99.90
56308;DHT22;42217;50.422;7.210;2024-03-17T06:52:05;5.40;99.90
56308;DHT22;42217;50.422;7.210;2024-03-17T06:54:31;5.40;99.90
56308;DHT22;42217;50.422;7.210;2024-03-17T06:56:59;5.50;99.90
56308;DHT22;42217;50.422;7.210;2024-03-17T06:59:25;5.80;99.90
56308;DHT22;42217;50.422;7.210;2024-03-17T07:01:51;5.90;99.90
56308;DHT22;42217;50.422;7.210;2024-03-17T07:04:16;6.10;99.90
56308;DHT22;42217;50.422;7.210;2024-03-17T07:06:42;6.30;99.90
56308;DHT22;42217;50.422;7.210;2024-03-17T07:09:08;6.50;99.90
56308;DHT22;42217;50.422;7.210;2024-03-17T07:11:34;6.80;99.90
56308;DHT22;42217;50.422;7.210;2024-03-17T07:14:00;6.90;99.90
56308;DHT22;42217;50.422;7.210;2024-03-17T07:16:26;7.00;99.90
56308;DHT22;42217;50.422;7.210;2024-03-17T07:18:52;7.10;99.90
56308;DHT22;42217;50.422;7.210;2024-03-17T07:21:21;7.20;99.90
56308;DHT22;42217;50.422;7.210;2024-03-17T07:23:47;7.40;99.90
56308;DHT22;42217;50.422;7.210;2024-03-17T07:26:13;7.40;99.90
56308;DHT22;42217;50.422;7.210;2024-03-17T07:28:40;7.50;99.90
56308;DHT22;42217;50.422;7.210;2024-03-17T07:31:08;7.60;99.90
56308;DHT22;42217;50.422;7.210;2024-03-17T07:33:35;7.70;99.90
56308;DHT22;42217;50.422;7.210;2024-03-17T07:36:01;7.90;99.90
56308;DHT22;42217;50.422;7.210;2024-03-17T07:38:29;8.10;99.90
56308;DHT22;42217;50.422;7.210;2024-03-17T07:41:03;8.40;99.90
56308;DHT22;42217;50.422;7.210;2024-03-17T07:43:31;8.70;99.90
56308;DHT22;42217;50.422;7.210;2024-03-17T07:46:04;8.80;99.90
56308;DHT22;42217;50.422;7.210;2024-03-17T07:48:31;9.10;99.90
56308;DHT22;42217;50.422;7.210;2024-03-17T07:51:01;9.40;99.90
56308;DHT22;42217;50.422;7.210;2024-03-17T07:53:31;9.80;99.90
56308;DHT22;42217;50.422;7.210;2024-03-17T07:56:02;10.10;99.90
56308;DHT22;42217;50.422;7.210;2024-03-17T07:58:33;10.10;99.90
56308;DHT22;42217;50.422;7.210;2024-03-17T08:03:25;10.60;99.90
56308;DHT22;42217;50.422;7.210;2024-03-17T08:05:51;10.70;99.90
56308;DHT22;42217;50.422;7.210;2024-03-17T08:08:18;10.50;99.90
56308;DHT22;42217;50.422;7.210;2024-03-17T08:10:44;10.30;99.90
56308;DHT22;42217;50.422;7.210;2024-03-17T08:13:10;10.20;99.90
56308;DHT22;42217;50.422;7.210;2024-03-17T08:15:36;10.10;99.90
56308;DHT22;42217;50.422;7.210;2024-03-17T08:18:02;9.90;99.90
56308;DHT22;42217;50.422;7.210;2024-03-17T08:20:29;9.80;99.90
56308;DHT22;42217;50.422;7.210;2024-03-17T08:22:55;9.80;99.90
56308;DHT22;42217;50.422;7.210;2024-03-17T08:25:21;9.60;99.90
56308;DHT22;42217;50.422;7.210;2024-03-17T08:27:47;9.50;99.90
56308;DHT22;42217;50.422;7.210;2024-03-17T08:30:13;9.30;99.90
56308;DHT22;42217;50.422;7.210;2024-03-17T08:32:39;9.30;99.90
56308;DHT22;42217;50.422;7.210;2024-03-17T08:35:05;9.40;99.90
56308;DHT22;42217;50.422;7.210;2024-03-17T08:37:31;9.30;99.90
56308;DHT22;42217;50.422;7.210;2024-03-17T08:39:57;9.30;99.90
56308;DHT22;42217;50.422;7.210;2024-03-17T08:42:23;9.20;99.90
56308;DHT22;42217;50.422;7.210;2024-03-17T08:44:48;9.20;99.90
56308;DHT22;42217;50.422;7.210;2024-03-17T08:47:14;9.30;99.90
56308;DHT22;42217;50.422;7.210;2024-03-17T08:49:40;9.50;99.90
56308;DHT22;42217;50.422;7.210;2024-03-17T08:52:06;9.60;99.90
56308;DHT22;42217;50.422;7.210;2024-03-17T08:54:32;9.70;99.90
56308;DHT22;42217;50.422;7.210;2024-03-17T08:56:58;9.90;99.90
56308;DHT22;42217;50.422;7.210;2024-03-17T08:59:23;10.00;99.90
56308;DHT22;42217;50.422;7.210;2024-03-17T09:01:49;10.00;99.90
56308;DHT22;42217;50.422;7.210;2024-03-17T09:04:15;10.00;99.90
56308;DHT22;42217;50.422;7.210;2024-03-17T09:06:40;10.00;99.90
56308;DHT22;42217;50.422;7.210;2024-03-17T09:09:07;10.10;99.90
56308;DHT22;42217;50.422;7.210;2024-03-17T09:11:33;10.30;99.90
56308;DHT22;42217;50.422;7.210;2024-03-17T09:13:59;10.60;99.90
56308;DHT22;42217;50.422;7.210;2024-03-17T09:16:24;10.60;99.90
56308;DHT22;42217;50.422;7.210;2024-03-17T09:18:51;10.70;99.90
56308;DHT22;42217;50.422;7.210;2024-03-17T09:21:17;10.80;99.90
56308;DHT22;42217;50.422;7.210;2024-03-17T09:23:43;10.90;99.90
56308;DHT22;42217;50.422;7.210;2024-03-17T09:26:10;10.80;99.90
56308;DHT22;42217;50.422;7.210;2024-03-17T09:28:41;10.80;99.90
56308;DHT22;42217;50.422;7.210;2024-03-17T09:31:07;10.70;99.90
56308;DHT22;42217;50.422;7.210;2024-03-17T09:33:34;10.80;99.90
56308;DHT22;42217;50.422;7.210;2024-03-17T09:36:07;10.80;99.90
56308;DHT22;42217;50.422;7.210;2024-03-17T09:38:34;10.80;99.90
56308;DHT22;42217;50.422;7.210;2024-03-17T09:41:01;10.80;99.90
56308;DHT22;42217;50.422;7.210;2024-03-17T09:43:29;10.80;99.90
56308;DHT22;42217;50.422;7.210;2024-03-17T09:45:55;10.80;99.90
56308;DHT22;42217;50.422;7.210;2024-03-17T09:48:27;10.90;99.90
56308;DHT22;42217;50.422;7.210;2024-03-17T09:50:55;11.10;99.90
56308;DHT22;42217;50.422;7.210;2024-03-17T09:53:39;11.20;99.90
56308;DHT22;42217;50.422;7.210;2024-03-17T09:56:10;11.30;99.90
56308;DHT22;42217;50.422;7.210;2024-03-17T09:58:39;11.70;99.90
56308;DHT22;42217;50.422;7.210;2024-03-17T10:01:05;11.80;99.90
56308;DHT22;42217;50.422;7.210;2024-03-17T10:03:50;12.00;99.90
56308;DHT22;42217;50.422;7.210;2024-03-17T10:06:30;12.00;99.90
56308;DHT22;42217;50.422;7.210;2024-03-17T10:08:58;12.20;99.90
56308;DHT22;42217;50.422;7.210;2024-03-17T10:11:25;12.20;99.90
56308;DHT22;42217;50.422;7.210;2024-03-17T10:16:28;12.20;99.90
56308;DHT22;42217;50.422;7.210;2024-03-17T10:19:09;12.40;99.90
56308;DHT22;42217;50.422;7.210;2024-03-17T10:21:40;12.20;99.90
56308;DHT22;42217;50.422;7.210;2024-03-17T10:24:17;12.30;99.90
56308;DHT22;42217;50.422;7.210;2024-03-17T10:26:49;12.40;99.90
56308;DHT22;42217;50.422;7.210;2024-03-17T10:31:53;12.50;99.90
56308;DHT22;42217;50.422;7.210;2024-03-17T10:34:20;12.60;99.90
56308;DHT22;42217;50.422;7.210;2024-03-17T10:36:46;12.50;99.90
56308;DHT22;42217;50.422;7.210;2024-03-17T10:39:28;12.50;99.90
56308;DHT22;42217;50.422;7.210;2024-03-17T10:42:05;12.80;99.90
56308;DHT22;42217;50.422;7.210;2024-03-17T10:44:32;12.90;99.90
56308;DHT22;42217;50.422;7.210;2024-03-17T10:47:00;12.90;99.90
56308;DHT22;42217;50.422;7.210;2024-03-17T10:49:32;13.10;99.90
56308;DHT22;42217;50.422;7.210;2024-03-17T10:52:06;13.30;99.90
56308;DHT22;42217;50.422;7.210;2024-03-17T10:54:32;13.60;99.90
56308;DHT22;42217;50.422;7.210;2024-03-17T10:59:48;13.70;99.90
56308;DHT22;42217;50.422;7.210;2024-03-17T11:02:22;14.00;99.90
56308;DHT22;42217;50.422;7.210;2024-03-17T11:04:55;14.20;99.90
56308;DHT22;42217;50.422;7.210;2024-03-17T11:07:22;14.20;99.90
56308;DHT22;42217;50.422;7.210;2024-03-17T11:09:50;14.10;99.90
56308;DHT22;42217;50.422;7.210;2024-03-17T11:17:49;14.50;99.90
56308;DHT22;42217;50.422;7.210;2024-03-17T11:20:25;14.70;99.90
56308;DHT22;42217;50.422;7.210;2024-03-17T11:22:52;14.60;99.90
56308;DHT22;42217;50.422;7.210;2024-03-17T11:27:56;14.60;99.90
56308;DHT22;42217;50.422;7.210;2024-03-17T11:51:53;17.80;99.90
56308;DHT22;42217;50.422;7.210;2024-03-17T11:54:28;17.50;99.90
56308;DHT22;42217;50.422;7.210;2024-03-17T11:57:04;17.40;99.90
56308;DHT22;42217;50.422;7.210;2024-03-17T11:59:31;17.20;99.90
56308;DHT22;42217;50.422;7.210;2024-03-17T12:01:59;17.20;99.90
56308;DHT22;42217;50.422;7.210;2024-03-17T12:04:26;17.10;99.90
56308;DHT22;42217;50.422;7.210;2024-03-17T12:06:55;16.80;99.90
56308;DHT22;42217;50.422;7.210;2024-03-17T12:09:25;16.60;99.90
56308;DHT22;42217;50.422;7.210;2024-03-17T12:12:03;16.70;99.90
56308;DHT22;42217;50.422;7.210;2024-03-17T12:14:37;16.70;99.90
56308;DHT22;42217;50.422;7.210;2024-03-17T12:17:08;16.80;99.90
56308;DHT22;42217;50.422;7.210;2024-03-17T12:19:35;17.00;99.90
56308;DHT22;42217;50.422;7.210;2024-03-17T12:22:02;17.00;99.90
56308;DHT22;42217;50.422;7.210;2024-03-17T12:24:32;16.60;99.90
56308;DHT22;42217;50.422;7.210;2024-03-17T12:26:59;16.40;99.90
56308;DHT22;42217;50.422;7.210;2024-03-17T12:29:32;16.40;99.90
56308;DHT22;42217;50.422;7.210;2024-03-17T12:32:00;16.70;99.90
56308;DHT22;42217;50.422;7.210;2024-03-17T12:34:30;17.00;99.90
56308;DHT22;42217;50.422;7.210;2024-03-17T12:36:57;17.20;99.90
56308;DHT22;42217;50.422;7.210;2024-03-17T12:45:00;17.80;99.90
56308;DHT22;42217;50.422;7.210;2024-03-17T12:47:30;17.50;99.90
56308;DHT22;42217;50.422;7.210;2024-03-17T12:50:00;17.40;99.90
56308;DHT22;42217;50.422;7.210;2024-03-17T12:52:30;17.10;99.90
56308;DHT22;42217;50.422;7.210;2024-03-17T12:55:06;17.10;99.90
56308;DHT22;42217;50.422;7.210;2024-03-17T12:57:51;17.10;99.90
56308;DHT22;42217;50.422;7.210;2024-03-17T13:00:36;16.60;99.90
56308;DHT22;42217;50.422;7.210;2024-03-17T13:03:06;16.40;99.90
56308;DHT22;42217;50.422;7.210;2024-03-17T13:05:36;16.20;99.90
56308;DHT22;42217;50.422;7.210;2024-03-17T13:08:02;16.20;99.90
56308;DHT22;42217;50.422;7.210;2024-03-17T13:10:29;16.20;99.90
56308;DHT22;42217;50.422;7.210;2024-03-17T13:13:00;16.00;99.90
56308;DHT22;42217;50.422;7.210;2024-03-17T13:15:27;15.90;99.90
56308;DHT22;42217;50.422;7.210;2024-03-17T13:17:54;15.40;99.90
56308;DHT22;42217;50.422;7.210;2024-03-17T13:20:19;15.30;99.90
56308;DHT22;42217;50.422;7.210;2024-03-17T13:22:46;15.10;99.90
56308;DHT22;42217;50.422;7.210;2024-03-17T13:25:15;15.20;99.90
56308;DHT22;42217;50.422;7.210;2024-03-17T13:27:46;15.10;99.90
56308;DHT22;42217;50.422;7.210;2024-03-17T13:30:14;15.00;99.90
56308;DHT22;42217;50.422;7.210;2024-03-17T13:32:41;14.80;99.90
56308;DHT22;42217;50.422;7.210;2024-03-17T13:37:44;14.90;99.90
56308;DHT22;42217;50.422;7.210;2024-03-17T13:40:10;14.90;99.90
56308;DHT22;42217;50.422;7.210;2024-03-17T13:42:38;14.80;99.90
56308;DHT22;42217;50.422;7.210;2024-03-17T13:45:05;14.80;99.90
56308;DHT22;42217;50.422;7.210;2024-03-17T13:47:32;14.70;99.90
56308;DHT22;42217;50.422;7.210;2024-03-17T13:49:58;14.80;99.90
56308;DHT22;42217;50.422;7.210;2024-03-17T13:52:24;15.00;99.90
56308;DHT22;42217;50.422;7.210;2024-03-17T13:54:50;15.10;99.90
56308;DHT22;42217;50.422;7.210;2024-03-17T13:57:16;15.30;99.90
56308;DHT22;42217;50.422;7.210;2024-03-17T13:59:42;15.40;99.90
56308;DHT22;42217;50.422;7.210;2024-03-17T14:02:12;15.40;99.90
56308;DHT22;42217;50.422;7.210;2024-03-17T14:04:38;15.30;99.90
56308;DHT22;42217;50.422;7.210;2024-03-17T14:07:04;15.60;99.90
56308;DHT22;42217;50.422;7.210;2024-03-17T14:09:30;15.90;99.90
56308;DHT22;42217;50.422;7.210;2024-03-17T14:11:56;16.20;99.90
56308;DHT22;42217;50.422;7.210;2024-03-17T14:14:23;16.80;99.90
56308;DHT22;42217;50.422;7.210;2024-03-17T14:16:49;17.20;99.90
56308;DHT22;42217;50.422;7.210;2024-03-17T14:19:14;17.50;99.90
56308;DHT22;42217;50.422;7.210;2024-03-17T14:21:40;17.70;99.90
56308;DHT22;42217;50.422;7.210;2024-03-17T14:24:06;18.20;99.90
56308;DHT22;42217;50.422;7.210;2024-03-17T14:26:34;18.60;99.90
56308;DHT22;42217;50.422;7.210;2024-03-17T14:29:01;19.20;99.50
56308;DHT22;42217;50.422;7.210;2024-03-17T14:31:30;19.90;97.70
56308;DHT22;42217;50.422;7.210;2024-03-17T14:33:57;20.80;95.00
56308;DHT22;42217;50.422;7.210;2024-03-17T14:36:22;21.70;91.50
56308;DHT22;42217;50.422;7.210;2024-03-17T14:38:52;22.40;89.50
56308;DHT22;42217;50.422;7.210;2024-03-17T14:41:19;23.20;85.30
56308;DHT22;42217;50.422;7.210;2024-03-17T14:43:45;23.60;81.90
56308;DHT22;42217;50.422;7.210;2024-03-17T14:46:12;23.70;80.80
56308;DHT22;42217;50.422;7.210;2024-03-17T14:48:42;23.90;81.00
56308;DHT22;42217;50.422;7.210;2024-03-17T14:51:09;23.90;80.40
56308;DHT22;42217;50.422;7.210;2024-03-17T14:53:34;23.50;80.80
56308;DHT22;42217;50.422;7.210;2024-03-17T14:56:02;23.70;80.40
56308;DHT22;42217;50.422;7.210;2024-03-17T14:58:29;23.70;74.50
56308;DHT22;42217;50.422;7.210;2024-03-17T15:00:55;22.80;78.40
56308;DHT22;42217;50.422;7.210;2024-03-17T15:03:20;22.00;81.90
56308;DHT22;42217;50.422;7.210;2024-03-17T15:05:46;21.30;83.00
56308;DHT22;42217;50.422;7.210;2024-03-17T15:08:12;20.40;84.00
56308;DHT22;42217;50.422;7.210;2024-03-17T15:10:38;19.40;85.80
56308;DHT22;42217;50.422;7.210;2024-03-17T15:13:04;18.50;88.20
56308;DHT22;42217;50.422;7.210;2024-03-17T15:15:29;17.70;89.70
56308;DHT22;42217;50.422;7.210;2024-03-17T15:17:55;17.30;91.40
56308;DHT22;42217;50.422;7.210;2024-03-17T15:20:21;17.20;91.60
56308;DHT22;42217;50.422;7.210;2024-03-17T15:22:48;17.30;91.60
56308;DHT22;42217;50.422;7.210;2024-03-17T15:25:15;17.70;91.20
56308;DHT22;42217;50.422;7.210;2024-03-17T15:27:42;17.20;91.80
56308;DHT22;42217;50.422;7.210;2024-03-17T15:30:17;16.70;92.70
56308;DHT22;42217;50.422;7.210;2024-03-17T15:32:51;15.90;93.00
56308;DHT22;42217;50.422;7.210;2024-03-17T15:35:20;15.20;94.30
56308;DHT22;42217;50.422;7.210;2024-03-17T15:37:46;14.80;96.20
56308;DHT22;42217;50.422;7.210;2024-03-17T15:40:13;14.60;96.50
56308;DHT22;42217;50.422;7.210;2024-03-17T15:42:45;14.40;96.80
56308;DHT22;42217;50.422;7.210;2024-03-17T15:45:11;14.40;98.50
56308;DHT22;42217;50.422;7.210;2024-03-17T15:47:37;14.40;99.40
56308;DHT22;42217;50.422;7.210;2024-03-17T15:50:03;14.40;99.90
56308;DHT22;42217;50.422;7.210;2024-03-17T15:52:29;14.50;99.90
56308;DHT22;42217;50.422;7.210;2024-03-17T15:54:56;14.50;99.90
56308;DHT22;42217;50.422;7.210;2024-03-17T15:57:22;14.40;99.90
56308;DHT22;42217;50.422;7.210;2024-03-17T15:59:51;14.30;99.90
56308;DHT22;42217;50.422;7.210;2024-03-17T16:02:19;14.30;99.90
56308;DHT22;42217;50.422;7.210;2024-03-17T16:04:46;14.30;99.90
56308;DHT22;42217;50.422;7.210;2024-03-17T16:07:12;14.30;99.90
56308;DHT22;42217;50.422;7.210;2024-03-17T16:09:38;14.20;99.90
56308;DHT22;42217;50.422;7.210;2024-03-17T16:12:05;14.40;99.90
56308;DHT22;42217;50.422;7.210;2024-03-17T16:14:33;16.00;99.80
56308;DHT22;42217;50.422;7.210;2024-03-17T16:17:00;17.90;96.70
56308;DHT22;42217;50.422;7.210;2024-03-17T16:19:27;18.80;94.30
56308;DHT22;42217;50.422;7.210;2024-03-17T16:21:56;18.10;94.50
56308;DHT22;42217;50.422;7.210;2024-03-17T16:24:22;16.90;95.40
56308;DHT22;42217;50.422;7.210;2024-03-17T16:26:48;15.90;96.60
56308;DHT22;42217;50.422;7.210;2024-03-17T16:29:14;15.30;97.90